Albert, KS (67511)

12:59 PM CDT on July 26, 2014 (GMT -0500)
Great Bend Municipal (KGBD) Elev 1886 ft | 38.34 °N, 98.86 °W | Change Station
Active Advisory: Heat Advisory

Current weather conditions updated 1 hour ago

Clear
Clear
91 °F
Feels Like 92 °F
N
13
Wind Variable Wind from WNW

Today is forecast to be nearly the same temperature as yesterday.

Today
High -- | Low -- °F
--% Chance of Precip.
Yesterday
High -- | Low -- °F
Precip. -- in
6:32 AM 8:51 PM
Waning Crescent, 0% visible
Pressure 29.86 in
Visibility 10.0 miles
Clouds Clear
Heat Index 92 °F
Dew Point 63 °F
Humidity 38%
Rainfall 0.18 in
Snow Depth Not available.
UV 8 out of 12
Pollen 6.70 out of 12
Air Quality Not available.
Flu Activity Not available.
METAR KGBD 261615Z AUTO 30011KT 10SM CLR 33/17 A2986 RMK AO1

More Conditions Fewer Conditions

Pressure 29.86 in
Visibility 10.0 miles
Clouds Clear
Heat Index 92 °F
Dew Point 63 °F
Humidity 38%
Rainfall 0.18 in
Snow Depth Not available.
UV 8 out of 12
Pollen 6.70 out of 12
Air Quality Not available.
Flu Activity Not available.
METAR KGBD 261615Z AUTO 30011KT 10SM CLR 33/17 A2986 RMK AO1

More Conditions Fewer Conditions

10-Day Weather Forecast

Almanac

Astronomy

Jul. 26, 2014 Rise Set
Actual Time 6:32 AM CDT 8:51 PM CDT
Civil Twilight 6:02 AM CDT 9:21 PM CDT
Nautical Twilight 5:26 AM CDT 9:58 PM CDT
Astronomical Twilight 4:45 AM CDT 10:38 PM CDT
Moon 6:26 AM CDT 8:28 PM CDT
Length of Visible Light 15h 18m
Length of Day
14h 18m
Tomorrow will be 1m 42s shorter.
Waning Crescent, 0% of the Moon is Illuminated
Today
Waning Crescent
Jul 26
New
Aug 3
First Quarter
Aug 10
Full
Aug 17
Last Quarter

Today's Extremes

State Highs State Lows

Community

WunderPhotos

Upload Photos

1,737,643 photos uploaded!

Nearby

Snow Depth

Station Depth Elevation
No new snow has been reported.

Earthquake Activity

City Distance Mag. Time & Date
Harper, Kansas 91 miles 3.3 7:24 AM CDT
2014-07-20
Harper, Kansas 102 miles 3.0 7:24 PM CDT
2014-07-19
Minimum magnitude displayed is 2.5.

Coastal Water Temperatures

Place Temperature
No Stations Reporting

Nearby Weather Stations

Station Location Temp. Heat Index Dew Point Humidity Wind Precip. Elev Updated Type
Eisenhower School Area, Great Bend, KS 97.2 °F 108 °F 74 °F 47% WNW  at  3.0 mph 0.00 in / hr 1860 ft 12:58 PM CDT Normal
HADS ARKANSAS RIVER AT GREAT BEND KS, Great Bend, KS 97 °F 92 °F - - North  at  - 0.00 in / hr 1850 ft 11:30 AM CDT MADIS
Ellinwood High School, Ellinwood, KS 95.4 °F 101 °F 68 °F 42% WSW  at  8.1 mph 0.00 in / hr 1811 ft 12:59 PM CDT Rapid Fire

Show More Stations Show Fewer Stations